createdAt,value
2022-12-11T00:00:42.384Z,8.00
2022-12-11T00:04:07.535Z,9.35
2022-12-11T00:07:14.279Z,10.63
2022-12-11T00:10:19.228Z,7.45
2022-12-11T00:13:27.501Z,9.27
2022-12-11T00:16:32.862Z,8.63
2022-12-11T00:19:38.529Z,8.50
2022-12-11T00:22:43.502Z,8.77
2022-12-11T00:25:51.484Z,8.57
2022-12-11T00:29:00.036Z,7.28
2022-12-11T00:32:06.356Z,10.15
2022-12-11T00:35:12.708Z,9.02
2022-12-11T00:38:19.453Z,7.97
2022-12-11T00:41:24.612Z,9.35
2022-12-11T00:44:34.331Z,8.82
2022-12-11T00:47:39.190Z,9.90
2022-12-11T00:50:44.718Z,8.70
2022-12-11T00:53:49.757Z,9.93
2022-12-11T00:56:58.369Z,9.15
2022-12-11T01:00:06.818Z,9.60
2022-12-11T01:03:14.000Z,9.18
2022-12-11T01:06:22.401Z,9.00
2022-12-11T01:09:44.550Z,8.93
2022-12-11T01:12:49.497Z,6.63
2022-12-11T01:15:58.579Z,8.93
2022-12-11T01:19:03.471Z,9.20
2022-12-11T01:22:09.657Z,9.20
2022-12-11T01:25:16.746Z,8.70
2022-12-11T01:28:21.985Z,8.68
2022-12-11T01:31:29.721Z,8.73
2022-12-11T01:34:35.865Z,8.88
2022-12-11T01:37:40.918Z,9.00
2022-12-11T01:40:49.667Z,7.47
2022-12-11T01:44:01.437Z,8.32
2022-12-11T01:47:09.937Z,8.90
2022-12-11T01:50:15.365Z,8.27
2022-12-11T01:53:27.569Z,8.85
2022-12-11T01:56:34.697Z,7.30
2022-12-11T01:59:44.186Z,7.85
2022-12-11T02:02:54.539Z,7.68
2022-12-11T02:06:02.145Z,8.77
2022-12-11T02:09:11.101Z,8.55
2022-12-11T02:12:19.612Z,8.13
2022-12-11T02:15:28.236Z,8.50
2022-12-11T02:18:39.411Z,9.23
2022-12-11T02:21:51.723Z,7.88
2022-12-11T02:25:07.070Z,8.38
2022-12-11T02:28:24.030Z,8.55
2022-12-11T02:31:35.528Z,8.05
2022-12-11T02:34:43.425Z,8.30
2022-12-11T02:37:50.966Z,7.80
2022-12-11T02:40:58.323Z,7.88
2022-12-11T02:44:07.416Z,7.05
2022-12-11T02:47:15.307Z,8.13
2022-12-11T02:50:23.580Z,7.55
2022-12-11T02:53:31.765Z,7.32
2022-12-11T02:56:43.228Z,8.25
2022-12-11T02:59:50.748Z,6.93
2022-12-11T03:02:59.824Z,6.50
2022-12-11T03:06:04.760Z,6.78
2022-12-11T03:09:10.311Z,6.22
2022-12-11T03:12:17.666Z,6.90
2022-12-11T03:15:30.437Z,7.78
2022-12-11T03:18:39.335Z,6.85
2022-12-11T03:21:48.642Z,6.25
2022-12-11T03:24:54.874Z,6.97
2022-12-11T03:28:01.107Z,6.68
2022-12-11T03:31:11.799Z,5.47
2022-12-11T03:34:22.708Z,6.57
2022-12-11T03:37:29.847Z,7.43
2022-12-11T03:40:36.533Z,7.10
2022-12-11T03:43:41.801Z,6.70
2022-12-11T03:46:50.557Z,7.18
2022-12-11T03:49:56.337Z,7.28
2022-12-11T03:53:02.755Z,6.70
2022-12-11T03:56:09.452Z,6.78
2022-12-11T03:59:16.165Z,6.45
2022-12-11T04:02:24.145Z,6.43
2022-12-11T04:05:34.921Z,6.70
2022-12-11T04:08:40.114Z,7.47
2022-12-11T04:11:45.530Z,7.03
2022-12-11T04:15:02.702Z,6.53
2022-12-11T04:18:23.701Z,7.80
2022-12-11T04:21:40.939Z,7.43
2022-12-11T04:24:50.348Z,7.40
2022-12-11T04:27:55.499Z,7.25
2022-12-11T04:31:00.985Z,7.18
2022-12-11T04:34:08.697Z,7.60
2022-12-11T04:37:13.977Z,7.10
2022-12-11T04:40:19.873Z,7.25
2022-12-11T04:43:25.228Z,6.10
2022-12-11T04:46:30.329Z,6.38
2022-12-11T04:49:38.540Z,7.40
2022-12-11T04:52:43.830Z,8.18
2022-12-11T04:55:49.097Z,7.88
2022-12-11T04:58:54.100Z,7.43
2022-12-11T05:02:00.277Z,8.20
2022-12-11T05:05:09.883Z,7.65
2022-12-11T05:08:15.386Z,8.82
2022-12-11T05:11:20.849Z,9.57
2022-12-11T05:14:27.688Z,9.68
2022-12-11T05:17:32.567Z,9.38
2022-12-11T05:20:40.466Z,9.48
2022-12-11T05:23:45.746Z,9.27
2022-12-11T05:26:51.082Z,6.28
2022-12-11T05:29:59.364Z,8.25
2022-12-11T05:33:04.949Z,9.23
2022-12-11T05:36:16.882Z,6.72
2022-12-11T05:39:23.416Z,10.10
2022-12-11T05:42:29.167Z,9.90
2022-12-11T05:45:34.898Z,10.23
2022-12-11T05:48:40.158Z,8.65
2022-12-11T05:51:48.573Z,9.80
2022-12-11T05:54:53.453Z,10.48
2022-12-11T05:57:59.946Z,9.93
2022-12-11T06:01:05.831Z,9.27
2022-12-11T06:04:12.427Z,9.40
2022-12-11T06:07:19.894Z,7.97
2022-12-11T06:10:25.384Z,8.50
2022-12-11T06:13:30.345Z,8.35
2022-12-11T06:16:36.180Z,9.40
2022-12-11T06:19:41.426Z,9.98
2022-12-11T06:22:50.736Z,8.18
2022-12-11T06:25:55.569Z,8.70
2022-12-11T06:29:00.938Z,8.52
2022-12-11T06:32:05.929Z,9.02
2022-12-11T06:35:12.588Z,8.50
2022-12-11T06:38:20.488Z,7.57
2022-12-11T06:41:25.979Z,10.30
2022-12-11T06:44:31.122Z,7.60
2022-12-11T06:47:36.496Z,6.57
2022-12-11T06:50:41.700Z,7.75
2022-12-11T06:53:53.788Z,9.30
2022-12-11T06:56:58.692Z,9.95
2022-12-11T07:00:04.260Z,8.00
2022-12-11T07:03:09.659Z,9.02
2022-12-11T07:06:15.079Z,8.98
2022-12-11T07:09:24.270Z,9.52
2022-12-11T07:12:29.778Z,9.05
2022-12-11T07:15:39.017Z,6.95
2022-12-11T07:18:51.759Z,7.65
2022-12-11T07:21:57.714Z,8.48
2022-12-11T07:25:05.583Z,7.10
2022-12-11T07:28:16.512Z,9.18
2022-12-11T07:31:23.281Z,8.57
2022-12-11T07:34:28.474Z,8.68
2022-12-11T07:37:34.956Z,7.35
2022-12-11T07:40:44.624Z,8.23
2022-12-11T07:43:49.922Z,8.80
2022-12-11T07:46:55.368Z,6.45
2022-12-11T07:50:00.636Z,8.90
2022-12-11T07:53:05.734Z,8.18
2022-12-11T07:56:13.867Z,7.05
2022-12-11T07:59:18.931Z,7.90
2022-12-11T08:02:24.376Z,8.95
2022-12-11T08:05:29.260Z,8.10
2022-12-11T08:08:34.685Z,8.38
2022-12-11T08:11:43.306Z,9.07
2022-12-11T08:14:50.248Z,7.72
2022-12-11T08:17:57.808Z,7.75
2022-12-11T08:21:07.305Z,7.20
2022-12-11T08:24:12.984Z,8.00
2022-12-11T08:27:22.227Z,8.45
2022-12-11T08:30:34.374Z,7.82
2022-12-11T08:33:42.734Z,8.43
2022-12-11T08:36:48.707Z,9.80
2022-12-11T08:39:54.063Z,10.60
2022-12-11T08:43:03.475Z,9.57
2022-12-11T08:46:08.962Z,9.60
2022-12-11T08:49:13.890Z,8.55
2022-12-11T08:52:20.992Z,8.82
2022-12-11T08:55:27.112Z,9.13
2022-12-11T08:58:35.053Z,8.55
2022-12-11T09:01:40.072Z,9.27
2022-12-11T09:04:47.829Z,8.25
2022-12-11T09:07:52.838Z,8.15
2022-12-11T09:10:59.825Z,7.28
2022-12-11T09:14:08.917Z,7.90
2022-12-11T09:17:14.651Z,5.50
2022-12-11T09:20:19.595Z,7.82
2022-12-11T09:23:26.983Z,8.35
2022-12-11T09:26:32.336Z,7.63
2022-12-11T09:29:41.422Z,7.47
2022-12-11T09:32:47.618Z,8.63
2022-12-11T09:35:59.736Z,8.02
2022-12-11T09:39:07.254Z,8.48
2022-12-11T09:42:16.262Z,8.40
2022-12-11T09:45:24.830Z,8.00
2022-12-11T09:48:30.992Z,8.73
2022-12-11T09:51:39.649Z,9.40
2022-12-11T09:54:50.797Z,8.90
2022-12-11T09:57:59.935Z,7.32
2022-12-11T10:01:12.672Z,8.50
2022-12-11T10:04:25.386Z,8.20
2022-12-11T10:07:37.216Z,10.02
2022-12-11T10:10:47.993Z,9.80
2022-12-11T10:14:05.702Z,8.57
2022-12-11T10:17:15.200Z,10.43
2022-12-11T10:20:26.975Z,9.93
2022-12-11T10:23:36.014Z,9.93
2022-12-11T10:26:42.133Z,9.63
2022-12-11T10:29:47.344Z,9.52
2022-12-11T10:33:02.134Z,10.45
2022-12-11T10:36:11.021Z,10.25
2022-12-11T10:39:19.755Z,11.20
2022-12-11T10:42:25.653Z,10.10
2022-12-11T10:45:34.886Z,10.88
2022-12-11T10:48:51.106Z,10.30
2022-12-11T10:51:59.534Z,10.75
2022-12-11T10:55:05.642Z,11.50
2022-12-11T10:58:18.879Z,11.30
2022-12-11T11:01:26.101Z,12.38
2022-12-11T11:04:37.528Z,11.75
2022-12-11T11:07:43.670Z,11.75
2022-12-11T11:10:56.142Z,12.02
2022-12-11T11:14:24.717Z,10.15
2022-12-11T11:17:35.439Z,12.88
2022-12-11T11:20:47.579Z,13.50
2022-12-11T11:23:55.723Z,12.02
2022-12-11T11:27:16.241Z,13.68
2022-12-11T11:30:23.538Z,15.32
2022-12-11T11:33:29.250Z,14.80
2022-12-11T11:36:43.487Z,13.85
2022-12-11T11:39:53.134Z,14.85
2022-12-11T11:43:06.335Z,13.45
2022-12-11T11:46:17.052Z,13.75
2022-12-11T11:49:42.053Z,14.43
2022-12-11T11:52:53.644Z,14.25
2022-12-11T11:56:15.552Z,13.63
2022-12-11T11:59:31.259Z,14.93
2022-12-11T12:02:47.198Z,14.70
2022-12-11T12:05:56.193Z,14.30
2022-12-11T12:09:06.870Z,14.50
2022-12-11T12:12:26.606Z,14.35
2022-12-11T12:15:37.019Z,15.02
2022-12-11T12:18:44.887Z,15.00
2022-12-11T12:21:52.625Z,15.90
2022-12-11T12:25:08.084Z,16.38
2022-12-11T12:28:18.932Z,17.15
2022-12-11T12:31:33.665Z,16.42
2022-12-11T12:34:51.676Z,14.60
2022-12-11T12:38:00.841Z,16.35
2022-12-11T12:41:15.772Z,14.60
2022-12-11T12:44:21.512Z,13.63
2022-12-11T12:47:29.414Z,11.23
2022-12-11T12:50:40.190Z,11.55
2022-12-11T12:53:50.501Z,11.40
2022-12-11T12:57:00.688Z,10.75
2022-12-11T13:00:13.153Z,10.77
2022-12-11T13:03:28.277Z,9.13
2022-12-11T13:06:36.078Z,9.40
2022-12-11T13:09:45.959Z,9.05
2022-12-11T13:13:00.526Z,9.30
2022-12-11T13:16:27.535Z,8.77
2022-12-11T13:19:42.161Z,9.68
2022-12-11T13:22:52.035Z,9.90
2022-12-11T13:25:58.173Z,10.02
2022-12-11T13:29:05.809Z,10.95
2022-12-11T13:32:24.472Z,12.18
2022-12-11T13:35:31.485Z,13.27
2022-12-11T13:38:37.049Z,12.18
2022-12-11T13:41:42.038Z,13.10
2022-12-11T13:44:52.342Z,13.93
2022-12-11T13:47:57.983Z,14.32
2022-12-11T13:51:03.567Z,14.60
2022-12-11T13:54:15.113Z,14.48
2022-12-11T13:57:23.899Z,14.00
2022-12-11T14:00:33.136Z,13.52
2022-12-11T14:03:38.802Z,14.00
2022-12-11T14:06:44.208Z,13.73
2022-12-11T14:09:49.585Z,12.95
2022-12-11T14:12:56.144Z,13.25
2022-12-11T14:16:09.268Z,11.95
2022-12-11T14:19:19.126Z,11.27
2022-12-11T14:22:25.638Z,11.88
2022-12-11T14:25:32.386Z,12.23
2022-12-11T14:28:41.463Z,11.80
2022-12-11T14:31:49.020Z,12.38
2022-12-11T14:34:54.520Z,13.43
2022-12-11T14:38:01.561Z,11.70
2022-12-11T14:41:08.959Z,12.63
2022-12-11T14:44:18.284Z,12.63
2022-12-11T14:47:29.146Z,12.65
2022-12-11T14:50:37.916Z,13.40
2022-12-11T14:53:53.470Z,12.60
2022-12-11T14:56:58.647Z,13.55
2022-12-11T15:00:04.440Z,13.50
2022-12-11T15:03:24.496Z,13.55
2022-12-11T15:06:31.633Z,12.73
2022-12-11T15:09:40.996Z,13.57
2022-12-11T15:12:47.480Z,13.85
2022-12-11T15:15:52.747Z,15.52
2022-12-11T15:19:00.694Z,15.75
2022-12-11T15:22:06.575Z,18.70
2022-12-11T15:25:20.817Z,17.05
2022-12-11T15:28:29.658Z,17.40
2022-12-11T15:31:41.502Z,17.05
2022-12-11T15:34:49.593Z,16.30
2022-12-11T15:37:58.023Z,17.45
2022-12-11T15:41:06.477Z,16.80
2022-12-11T15:44:20.637Z,16.98
2022-12-11T15:47:26.334Z,14.23
2022-12-11T15:50:34.269Z,13.73
2022-12-11T15:53:39.168Z,14.73
2022-12-11T15:56:44.733Z,15.98
2022-12-11T15:59:51.127Z,16.52
2022-12-11T16:02:57.265Z,16.40
2022-12-11T16:06:08.735Z,17.58
2022-12-11T16:09:14.145Z,19.77
2022-12-11T16:12:19.100Z,16.85
2022-12-11T16:15:24.703Z,18.67
2022-12-11T16:18:30.044Z,18.23
2022-12-11T16:21:39.823Z,21.60
2022-12-11T16:24:45.990Z,22.90
2022-12-11T16:27:51.646Z,20.15
2022-12-11T16:30:56.639Z,21.48
2022-12-11T16:34:01.946Z,21.80
2022-12-11T16:37:10.069Z,22.83
2022-12-11T16:40:15.819Z,22.52
2022-12-11T16:43:21.201Z,21.67
2022-12-11T16:46:27.574Z,19.55
2022-12-11T16:49:33.745Z,20.23
2022-12-11T16:52:42.497Z,17.70
2022-12-11T16:55:50.207Z,19.65
2022-12-11T16:58:55.590Z,19.15
2022-12-11T17:02:00.517Z,19.30
2022-12-11T17:05:06.157Z,19.85
2022-12-11T17:08:15.292Z,19.20
2022-12-11T17:11:25.103Z,18.85
2022-12-11T17:14:29.976Z,20.30
2022-12-11T17:17:35.179Z,18.85
2022-12-11T17:20:42.846Z,20.55
2022-12-11T17:23:54.898Z,20.65
2022-12-11T17:27:00.725Z,19.50
2022-12-11T17:30:13.614Z,19.90
2022-12-11T17:33:18.611Z,21.65
2022-12-11T17:36:24.883Z,20.88
2022-12-11T17:39:32.502Z,19.10
2022-12-11T17:42:37.826Z,20.75
2022-12-11T17:45:46.234Z,19.67
2022-12-11T17:48:51.867Z,19.85
2022-12-11T17:51:57.134Z,21.83
2022-12-11T17:55:05.414Z,20.00
2022-12-11T17:58:10.267Z,19.08
2022-12-11T18:01:15.729Z,22.13
2022-12-11T18:04:24.801Z,22.25
2022-12-11T18:07:30.466Z,22.70
2022-12-11T18:10:38.420Z,22.63
2022-12-11T18:13:46.006Z,20.70
2022-12-11T18:16:52.665Z,21.33
2022-12-11T18:19:57.969Z,19.70
2022-12-11T18:23:04.169Z,18.15
2022-12-11T18:26:14.621Z,18.42
2022-12-11T18:29:19.641Z,17.08
2022-12-11T18:32:25.348Z,19.23
2022-12-11T18:35:30.697Z,18.63
2022-12-11T18:38:37.377Z,21.65
2022-12-11T18:41:53.845Z,20.60
2022-12-11T18:45:10.384Z,21.58
2022-12-11T18:48:16.016Z,20.73
2022-12-11T18:51:26.226Z,20.30
2022-12-11T18:54:31.449Z,15.25
2022-12-11T18:57:39.799Z,14.82
2022-12-11T19:00:46.915Z,16.58
2022-12-11T19:04:01.983Z,15.05
2022-12-11T19:07:09.322Z,8.48
2022-12-11T19:10:16.674Z,4.07
2022-12-11T19:13:26.606Z,1.67
2022-12-11T19:16:33.773Z,0.88
2022-12-11T19:19:39.651Z,0.63
2022-12-11T19:22:45.113Z,0.80
2022-12-11T19:25:52.972Z,0.80
2022-12-11T19:29:02.836Z,0.40
2022-12-11T19:32:08.632Z,0.70
2022-12-11T19:35:15.235Z,0.75
2022-12-11T19:38:21.400Z,0.90
2022-12-11T19:41:27.768Z,0.57
2022-12-11T19:44:35.863Z,0.90
2022-12-11T19:47:42.572Z,0.80
2022-12-11T19:50:47.447Z,0.70
2022-12-11T19:53:53.224Z,0.70
2022-12-11T19:56:58.211Z,0.77
2022-12-11T20:00:08.237Z,0.55
2022-12-11T20:03:13.126Z,0.80
2022-12-11T20:06:18.649Z,1.25
2022-12-11T20:09:24.533Z,0.77
2022-12-11T20:12:30.418Z,0.88
2022-12-11T20:15:41.819Z,0.75
2022-12-11T20:18:47.716Z,0.93
2022-12-11T20:21:56.121Z,0.75
2022-12-11T20:25:11.317Z,0.68
2022-12-11T20:28:19.635Z,0.60
2022-12-11T20:31:29.510Z,0.63
2022-12-11T20:34:41.338Z,0.70
2022-12-11T20:37:48.026Z,0.82
2022-12-11T20:40:53.566Z,0.98
2022-12-11T20:43:59.562Z,0.95
2022-12-11T20:47:07.706Z,0.70
2022-12-11T20:50:15.385Z,0.75
2022-12-11T20:53:24.444Z,0.68
2022-12-11T20:56:33.333Z,0.65
2022-12-11T20:59:42.209Z,0.90
2022-12-11T21:03:00.921Z,0.93
2022-12-11T21:06:05.969Z,0.80
2022-12-11T21:09:12.217Z,0.93
2022-12-11T21:12:17.542Z,0.75
2022-12-11T21:15:28.199Z,1.02
2022-12-11T21:18:39.871Z,0.93
2022-12-11T21:21:45.778Z,0.50
2022-12-11T21:24:51.399Z,0.80
2022-12-11T21:27:59.942Z,0.73
2022-12-11T21:31:06.033Z,0.60
2022-12-11T21:34:20.637Z,0.60
2022-12-11T21:37:28.891Z,0.68
2022-12-11T21:40:34.395Z,0.80
2022-12-11T21:43:54.592Z,0.90
2022-12-11T21:47:05.042Z,0.80
2022-12-11T21:50:15.207Z,0.80
2022-12-11T21:53:23.045Z,0.70
2022-12-11T21:56:28.757Z,0.70
2022-12-11T21:59:37.817Z,0.50
2022-12-11T22:04:55.093Z,0.73
2022-12-11T22:08:03.526Z,1.00
2022-12-11T22:11:09.422Z,0.60
2022-12-11T22:14:15.413Z,0.85
2022-12-11T22:17:22.107Z,0.80
2022-12-11T22:20:38.987Z,0.90
2022-12-11T22:23:49.929Z,0.93
2022-12-11T22:27:23.441Z,0.52
2022-12-11T22:30:30.938Z,0.95
2022-12-11T22:33:48.253Z,0.60
2022-12-11T22:36:58.682Z,0.60
2022-12-11T22:40:08.783Z,0.73
2022-12-11T22:43:13.929Z,0.80
2022-12-11T22:46:21.139Z,0.70
2022-12-11T22:49:37.578Z,0.70
2022-12-11T22:52:47.764Z,0.85
2022-12-11T22:55:53.842Z,0.93
2022-12-11T22:59:02.857Z,0.80
2022-12-11T23:02:17.049Z,0.70
2022-12-11T23:05:28.055Z,0.93
2022-12-11T23:08:37.116Z,0.70
2022-12-11T23:12:12.161Z,0.90
2022-12-11T23:15:37.167Z,0.63
2022-12-11T23:18:52.523Z,0.52
2022-12-11T23:21:58.083Z,0.60
2022-12-11T23:25:11.938Z,0.80
2022-12-11T23:28:17.544Z,0.80
2022-12-11T23:31:25.157Z,0.60
2022-12-11T23:34:31.726Z,0.95
2022-12-11T23:37:37.404Z,0.85
2022-12-11T23:40:47.001Z,1.10
2022-12-11T23:43:52.433Z,0.90
2022-12-11T23:46:59.184Z,0.82
2022-12-11T23:50:05.537Z,0.88
2022-12-11T23:53:10.959Z,1.60
2022-12-11T23:56:20.999Z,1.20
2022-12-11T23:59:26.620Z,1.10
